createdAt,value
2022-09-30T00:00:37.645Z,7.22
2022-09-30T00:03:03.976Z,7.43
2022-09-30T00:05:30.202Z,8.23
2022-09-30T00:07:56.504Z,9.65
2022-09-30T00:10:22.705Z,7.93
2022-09-30T00:12:51.066Z,7.25
2022-09-30T00:15:17.694Z,7.97
2022-09-30T00:17:43.927Z,8.93
2022-09-30T00:20:10.603Z,8.15
2022-09-30T00:22:36.899Z,6.95
2022-09-30T00:25:03.594Z,7.80
2022-09-30T00:27:29.937Z,6.88
2022-09-30T00:29:56.221Z,7.47
2022-09-30T00:32:22.456Z,7.43
2022-09-30T00:34:48.679Z,7.80
2022-09-30T00:37:15.324Z,7.43
2022-09-30T00:39:41.528Z,8.35
2022-09-30T00:42:11.226Z,7.22
2022-09-30T00:44:56.942Z,9.35
2022-09-30T00:47:42.065Z,7.70
2022-09-30T00:50:14.335Z,7.88
2022-09-30T00:52:41.650Z,7.65
2022-09-30T00:55:09.995Z,7.88
2022-09-30T00:57:36.723Z,9.45
2022-09-30T01:00:04.811Z,7.63
2022-09-30T01:02:31.081Z,6.68
2022-09-30T01:04:57.390Z,7.55
2022-09-30T01:07:23.982Z,7.50
2022-09-30T01:09:51.079Z,8.45
2022-09-30T01:12:20.091Z,7.03
2022-09-30T01:14:47.396Z,8.45
2022-09-30T01:17:13.570Z,7.90
2022-09-30T01:19:39.743Z,9.23
2022-09-30T01:22:18.193Z,6.90
2022-09-30T01:24:54.502Z,8.50
2022-09-30T01:27:24.441Z,7.70
2022-09-30T01:30:00.425Z,9.93
2022-09-30T01:32:49.302Z,8.93
2022-09-30T01:35:25.182Z,10.05
2022-09-30T01:38:11.631Z,8.45
2022-09-30T01:40:43.903Z,10.30
2022-09-30T01:43:32.006Z,8.70
2022-09-30T01:46:09.496Z,9.02
2022-09-30T01:48:40.959Z,8.15
2022-09-30T01:53:39.116Z,9.93
2022-09-30T01:56:20.415Z,7.30
2022-09-30T01:59:02.418Z,9.43
2022-09-30T02:01:31.702Z,10.02
2022-09-30T02:04:00.223Z,7.95
2022-09-30T02:06:30.928Z,7.43
2022-09-30T02:09:00.728Z,6.87
2022-09-30T02:11:28.335Z,8.68
2022-09-30T02:14:14.884Z,7.60
2022-09-30T02:16:48.131Z,8.85
2022-09-30T02:19:18.288Z,9.15
2022-09-30T02:21:46.732Z,8.55
2022-09-30T02:24:14.866Z,7.97
2022-09-30T02:26:42.638Z,6.60
2022-09-30T02:29:13.295Z,9.32
2022-09-30T02:31:41.687Z,7.17
2022-09-30T02:34:10.750Z,8.27
2022-09-30T02:36:43.524Z,7.68
2022-09-30T02:39:20.161Z,9.43
2022-09-30T02:41:49.780Z,10.05
2022-09-30T02:44:16.762Z,6.88
2022-09-30T02:46:46.597Z,8.55
2022-09-30T02:49:24.131Z,8.40
2022-09-30T02:52:02.340Z,8.07
2022-09-30T02:54:37.040Z,8.18
2022-09-30T02:57:10.760Z,7.25
2022-09-30T02:59:37.022Z,8.70
2022-09-30T03:02:03.358Z,7.05
2022-09-30T03:04:31.222Z,9.10
2022-09-30T03:06:57.431Z,8.43
2022-09-30T03:09:27.195Z,9.65
2022-09-30T03:12:03.023Z,10.50
2022-09-30T03:14:47.281Z,8.05
2022-09-30T03:17:26.347Z,10.38
2022-09-30T03:20:10.039Z,8.70
2022-09-30T03:22:46.008Z,8.90
2022-09-30T03:25:20.576Z,9.38
2022-09-30T03:28:05.875Z,8.50
2022-09-30T03:30:33.351Z,8.52
2022-09-30T03:33:02.554Z,9.73
2022-09-30T03:35:52.067Z,8.82
2022-09-30T03:38:34.525Z,9.05
2022-09-30T03:41:08.306Z,9.15
2022-09-30T03:43:38.015Z,9.27
2022-09-30T03:46:41.856Z,9.65
2022-09-30T03:49:10.609Z,6.88
2022-09-30T03:51:38.254Z,8.32
2022-09-30T03:54:12.019Z,7.93
2022-09-30T03:56:42.361Z,7.43
2022-09-30T03:59:21.791Z,8.43
2022-09-30T04:01:48.171Z,10.10
2022-09-30T04:04:14.475Z,6.57
2022-09-30T04:06:40.663Z,8.60
2022-09-30T04:09:06.995Z,6.68
2022-09-30T04:11:33.221Z,8.75
2022-09-30T04:14:01.371Z,8.35
2022-09-30T04:16:31.025Z,8.15
2022-09-30T04:18:57.325Z,8.48
2022-09-30T04:21:23.788Z,8.55
2022-09-30T04:23:50.159Z,9.55
2022-09-30T04:26:17.461Z,10.43
2022-09-30T04:28:43.839Z,8.10
2022-09-30T04:31:11.789Z,8.23
2022-09-30T04:33:38.704Z,7.80
2022-09-30T04:36:05.368Z,8.70
2022-09-30T04:38:31.582Z,10.82
2022-09-30T04:40:58.552Z,9.05
2022-09-30T04:43:25.249Z,8.90
2022-09-30T04:45:55.578Z,9.50
2022-09-30T04:48:24.620Z,9.73
2022-09-30T04:50:50.864Z,9.45
2022-09-30T04:53:17.760Z,10.57
2022-09-30T04:55:44.657Z,10.98
2022-09-30T04:58:11.480Z,9.32
2022-09-30T05:00:37.831Z,11.32
2022-09-30T05:03:04.723Z,9.88
2022-09-30T05:05:31.037Z,13.25
2022-09-30T05:08:03.887Z,12.23
2022-09-30T05:10:30.323Z,10.82
2022-09-30T05:12:57.779Z,9.65
2022-09-30T05:15:24.160Z,10.10
2022-09-30T05:17:50.483Z,12.50
2022-09-30T05:20:20.900Z,11.07
2022-09-30T05:22:47.654Z,11.95
2022-09-30T05:25:13.867Z,10.52
2022-09-30T05:27:40.081Z,9.18
2022-09-30T05:30:06.677Z,10.65
2022-09-30T05:32:32.955Z,9.15
2022-09-30T05:34:59.191Z,10.13
2022-09-30T05:37:25.434Z,10.00
2022-09-30T05:39:51.619Z,8.25
2022-09-30T05:42:17.906Z,11.57
2022-09-30T05:44:44.310Z,10.32
2022-09-30T05:47:11.549Z,9.35
2022-09-30T05:49:38.313Z,10.10
2022-09-30T05:52:05.166Z,9.07
2022-09-30T05:54:31.579Z,12.75
2022-09-30T05:56:57.775Z,12.43
2022-09-30T05:59:24.047Z,10.30
2022-09-30T06:01:50.351Z,8.73
2022-09-30T06:04:16.577Z,13.77
2022-09-30T06:06:42.827Z,10.25
2022-09-30T06:09:09.123Z,11.32
2022-09-30T06:11:35.351Z,9.38
2022-09-30T06:14:02.600Z,12.52
2022-09-30T06:16:28.872Z,11.52
2022-09-30T06:18:55.295Z,9.68
2022-09-30T06:21:22.699Z,12.73
2022-09-30T06:23:48.948Z,9.68
2022-09-30T06:26:15.227Z,10.80
2022-09-30T06:28:42.002Z,10.90
2022-09-30T06:31:08.599Z,19.05
2022-09-30T06:33:35.208Z,14.65
2022-09-30T06:36:04.345Z,18.15
2022-09-30T06:38:31.511Z,13.45
2022-09-30T06:40:59.199Z,16.52
2022-09-30T06:43:25.466Z,14.68
2022-09-30T06:45:52.393Z,19.15
2022-09-30T06:48:33.138Z,18.65
2022-09-30T06:51:02.502Z,18.70
2022-09-30T06:53:29.257Z,18.95
2022-09-30T06:55:58.552Z,20.20
2022-09-30T06:58:25.139Z,26.00
2022-09-30T07:00:58.256Z,18.70
2022-09-30T07:03:25.620Z,17.73
2022-09-30T07:05:57.233Z,19.60
2022-09-30T07:08:25.718Z,23.30
2022-09-30T07:10:52.745Z,17.95
2022-09-30T07:13:18.966Z,21.60
2022-09-30T07:15:45.288Z,27.52
2022-09-30T07:18:11.507Z,21.92
2022-09-30T07:20:37.711Z,21.48
2022-09-30T07:23:03.982Z,22.00
2022-09-30T07:25:30.377Z,25.92
2022-09-30T07:27:57.234Z,22.45
2022-09-30T07:30:27.295Z,21.75
2022-09-30T07:32:53.816Z,21.30
2022-09-30T07:35:20.102Z,24.70
2022-09-30T07:37:46.273Z,25.85
2022-09-30T07:40:12.475Z,21.42
2022-09-30T07:42:45.250Z,24.65
2022-09-30T07:45:14.730Z,22.65
2022-09-30T07:47:43.552Z,24.45
2022-09-30T07:50:10.723Z,21.45
2022-09-30T07:52:37.055Z,21.80
2022-09-30T07:55:03.510Z,25.80
2022-09-30T07:57:29.739Z,23.50
2022-09-30T07:59:56.267Z,23.65
2022-09-30T08:02:24.417Z,21.60
2022-09-30T08:04:50.760Z,22.15
2022-09-30T08:07:17.597Z,23.67
2022-09-30T08:09:43.935Z,23.33
2022-09-30T08:12:10.225Z,21.08
2022-09-30T08:14:36.486Z,19.85
2022-09-30T08:17:02.737Z,18.50
2022-09-30T08:19:29.733Z,18.02
2022-09-30T08:21:56.481Z,15.82
2022-09-30T08:24:23.480Z,18.27
2022-09-30T08:26:49.995Z,18.17
2022-09-30T08:29:20.625Z,15.65
2022-09-30T08:31:56.413Z,17.30
2022-09-30T08:34:23.614Z,13.52
2022-09-30T08:36:49.900Z,13.77
2022-09-30T08:39:16.138Z,13.75
2022-09-30T08:41:49.199Z,12.93
2022-09-30T08:44:23.357Z,13.38
2022-09-30T08:47:08.506Z,14.88
2022-09-30T08:49:58.710Z,14.70
2022-09-30T08:52:37.239Z,15.38
2022-09-30T08:55:18.992Z,13.65
2022-09-30T08:57:47.653Z,13.95
2022-09-30T09:00:16.157Z,13.82
2022-09-30T09:02:45.136Z,11.70
2022-09-30T09:05:16.401Z,13.80
2022-09-30T09:08:08.812Z,12.07
2022-09-30T09:10:46.232Z,12.48
2022-09-30T09:13:31.120Z,12.85
2022-09-30T09:16:00.330Z,12.18
2022-09-30T09:18:35.959Z,10.43
2022-09-30T09:21:09.322Z,10.38
2022-09-30T09:23:35.887Z,10.23
2022-09-30T09:26:03.170Z,10.45
2022-09-30T09:28:50.355Z,8.85
2022-09-30T09:31:20.064Z,10.90
2022-09-30T09:33:47.157Z,10.80
2022-09-30T09:36:13.417Z,9.32
2022-09-30T09:38:58.265Z,8.88
2022-09-30T09:41:39.151Z,9.60
2022-09-30T09:44:17.790Z,9.40
2022-09-30T09:46:48.989Z,8.88
2022-09-30T09:49:20.851Z,10.25
2022-09-30T09:51:59.623Z,9.82
2022-09-30T09:54:31.055Z,9.48
2022-09-30T09:57:05.214Z,9.30
2022-09-30T09:59:31.639Z,8.68
2022-09-30T10:02:00.110Z,7.72
2022-09-30T10:04:30.382Z,8.38
2022-09-30T10:07:00.535Z,7.80
2022-09-30T10:09:28.800Z,8.40
2022-09-30T10:12:07.236Z,7.60
2022-09-30T10:14:52.436Z,7.78
2022-09-30T10:17:25.690Z,6.78
2022-09-30T10:19:53.260Z,10.10
2022-09-30T10:22:20.700Z,7.05
2022-09-30T10:24:48.892Z,9.43
2022-09-30T10:27:34.859Z,7.35
2022-09-30T10:30:01.111Z,8.77
2022-09-30T10:32:27.943Z,7.97
2022-09-30T10:34:56.279Z,9.23
2022-09-30T10:37:23.375Z,7.07
2022-09-30T10:39:57.672Z,6.30
2022-09-30T10:42:26.852Z,5.85
2022-09-30T10:44:55.570Z,5.82
2022-09-30T10:47:23.161Z,5.68
2022-09-30T10:49:51.171Z,5.43
2022-09-30T10:52:19.076Z,5.28
2022-09-30T10:54:48.088Z,4.82
2022-09-30T10:57:15.601Z,3.67
2022-09-30T10:59:42.612Z,4.88
2022-09-30T11:02:15.005Z,4.38
2022-09-30T11:04:44.127Z,4.30
2022-09-30T11:07:14.360Z,5.03
2022-09-30T11:09:46.070Z,4.28
2022-09-30T11:12:20.314Z,4.80
2022-09-30T11:14:55.372Z,6.32
2022-09-30T11:17:27.657Z,5.68
2022-09-30T11:19:56.971Z,6.80
2022-09-30T11:22:39.162Z,4.57
2022-09-30T11:25:10.906Z,4.63
2022-09-30T11:27:38.112Z,4.55
2022-09-30T11:30:04.701Z,3.95
2022-09-30T11:32:37.318Z,3.85
2022-09-30T11:35:09.348Z,3.85
2022-09-30T11:37:52.478Z,5.10
2022-09-30T11:40:21.776Z,4.20
2022-09-30T11:43:08.388Z,4.72
2022-09-30T11:46:01.063Z,5.25
2022-09-30T11:48:32.790Z,3.42
2022-09-30T11:51:05.277Z,4.97
2022-09-30T11:53:50.100Z,5.03
2022-09-30T11:56:28.552Z,4.22
2022-09-30T11:58:58.329Z,5.22
2022-09-30T12:01:30.174Z,4.05
2022-09-30T12:04:08.121Z,3.20
2022-09-30T12:06:35.968Z,4.15
2022-09-30T12:09:06.203Z,3.35
2022-09-30T12:11:35.411Z,4.78
2022-09-30T12:14:05.328Z,2.28
2022-09-30T12:16:33.176Z,2.55
2022-09-30T12:19:04.169Z,3.35
2022-09-30T12:21:35.462Z,2.95
2022-09-30T12:26:28.275Z,1.95
2022-09-30T12:29:15.606Z,2.35
2022-09-30T12:31:54.491Z,2.13
2022-09-30T12:34:38.478Z,2.15
2022-09-30T12:37:23.007Z,2.22
2022-09-30T12:39:57.712Z,1.38
2022-09-30T12:42:38.781Z,2.35
2022-09-30T12:45:23.723Z,4.00
2022-09-30T12:48:00.076Z,3.08
2022-09-30T12:50:34.198Z,2.47
2022-09-30T12:53:09.614Z,1.80
2022-09-30T12:55:40.727Z,2.83
2022-09-30T12:58:14.357Z,3.50
2022-09-30T13:00:40.598Z,1.70
2022-09-30T13:03:08.769Z,4.05
2022-09-30T13:05:35.105Z,2.33
2022-09-30T13:08:07.308Z,1.42
2022-09-30T13:10:39.294Z,2.13
2022-09-30T13:13:11.365Z,3.35
2022-09-30T13:15:42.199Z,2.03
2022-09-30T13:18:20.433Z,3.80
2022-09-30T13:20:49.603Z,2.88
2022-09-30T13:23:35.379Z,1.98
2022-09-30T13:26:05.556Z,3.13
2022-09-30T13:28:37.676Z,2.10
2022-09-30T13:31:15.633Z,3.92
2022-09-30T13:33:46.069Z,6.22
2022-09-30T13:36:24.657Z,1.92
2022-09-30T13:39:05.588Z,2.17
2022-09-30T13:41:32.627Z,2.20
2022-09-30T13:44:05.888Z,3.63
2022-09-30T13:46:39.822Z,4.00
2022-09-30T13:49:12.099Z,3.33
2022-09-30T13:51:40.154Z,1.98
2022-09-30T13:54:08.453Z,2.90
2022-09-30T13:56:36.326Z,3.05
2022-09-30T13:59:09.723Z,1.65
2022-09-30T14:01:36.118Z,3.13
2022-09-30T14:04:06.328Z,1.23
2022-09-30T14:06:48.288Z,2.13
2022-09-30T14:09:21.399Z,1.73
2022-09-30T14:11:59.146Z,3.28
2022-09-30T14:14:39.006Z,1.90
2022-09-30T14:17:17.393Z,1.92
2022-09-30T14:19:57.719Z,1.98
2022-09-30T14:22:26.894Z,1.20
2022-09-30T14:24:53.336Z,3.63
2022-09-30T14:27:24.390Z,2.10
2022-09-30T14:30:09.331Z,1.30
2022-09-30T14:32:46.064Z,2.35
2022-09-30T14:35:15.246Z,1.63
2022-09-30T14:37:44.534Z,1.60
2022-09-30T14:40:12.230Z,3.40
2022-09-30T14:42:39.890Z,3.55
2022-09-30T14:45:06.604Z,2.30
2022-09-30T14:47:43.336Z,4.00
2022-09-30T14:50:10.719Z,2.40
2022-09-30T14:52:41.458Z,2.53
2022-09-30T14:55:25.189Z,5.70
2022-09-30T14:57:51.908Z,3.72
2022-09-30T15:00:21.280Z,1.88
2022-09-30T15:02:47.516Z,1.98
2022-09-30T15:05:15.788Z,1.90
2022-09-30T15:07:42.029Z,3.63
2022-09-30T15:10:16.754Z,3.53
2022-09-30T15:12:43.179Z,4.95
2022-09-30T15:15:29.632Z,3.15
2022-09-30T15:17:56.088Z,2.40
2022-09-30T15:20:26.011Z,2.20
2022-09-30T15:22:53.069Z,2.10
2022-09-30T15:25:21.289Z,2.17
2022-09-30T15:27:49.802Z,2.72
2022-09-30T15:30:16.055Z,4.45
2022-09-30T15:32:42.587Z,1.48
2022-09-30T15:35:16.432Z,2.63
2022-09-30T15:37:43.478Z,2.28
2022-09-30T15:40:33.099Z,1.60
2022-09-30T15:43:03.142Z,3.38
2022-09-30T15:45:34.876Z,2.70
2022-09-30T15:48:04.251Z,2.42
2022-09-30T15:50:41.803Z,2.03
2022-09-30T15:53:15.213Z,1.55
2022-09-30T15:55:43.587Z,1.50
2022-09-30T15:58:29.541Z,2.35
2022-09-30T16:01:14.557Z,2.95
2022-09-30T16:03:54.305Z,2.30
2022-09-30T16:06:26.591Z,1.45
2022-09-30T16:08:59.028Z,2.60
2022-09-30T16:11:27.258Z,1.92
2022-09-30T16:13:53.816Z,2.38
2022-09-30T16:16:21.539Z,2.28
2022-09-30T16:18:48.768Z,1.67
2022-09-30T16:21:44.662Z,2.03
2022-09-30T16:24:23.326Z,1.90
2022-09-30T16:26:50.310Z,1.40
2022-09-30T16:29:17.960Z,2.40
2022-09-30T16:31:45.484Z,2.08
2022-09-30T16:34:18.167Z,3.45
2022-09-30T16:36:44.450Z,2.67
2022-09-30T16:39:12.783Z,2.40
2022-09-30T16:41:38.986Z,2.72
2022-09-30T16:44:05.188Z,2.03
2022-09-30T16:46:33.073Z,2.72
2022-09-30T16:48:59.690Z,3.33
2022-09-30T16:51:26.939Z,5.38
2022-09-30T16:53:53.153Z,4.53
2022-09-30T16:56:19.931Z,6.05
2022-09-30T16:58:47.023Z,5.85
2022-09-30T17:01:18.404Z,3.33
2022-09-30T17:03:44.796Z,5.07
2022-09-30T17:06:11.213Z,3.80
2022-09-30T17:08:37.500Z,3.17
2022-09-30T17:11:03.703Z,3.05
2022-09-30T17:13:30.388Z,2.90
2022-09-30T17:15:56.983Z,2.63
2022-09-30T17:18:23.242Z,4.15
2022-09-30T17:20:52.828Z,3.90
2022-09-30T17:23:20.547Z,3.22
2022-09-30T17:25:46.861Z,2.95
2022-09-30T17:28:13.335Z,3.53
2022-09-30T17:30:41.056Z,3.70
2022-09-30T17:33:09.676Z,3.33
2022-09-30T17:35:38.252Z,3.40
2022-09-30T17:38:11.890Z,4.63
2022-09-30T17:40:56.830Z,4.00
2022-09-30T17:43:23.058Z,3.92
2022-09-30T17:45:52.325Z,5.40
2022-09-30T17:48:18.707Z,4.13
2022-09-30T17:50:45.958Z,2.10
2022-09-30T17:53:13.940Z,2.22
2022-09-30T17:55:41.210Z,2.63
2022-09-30T17:58:09.209Z,3.22
2022-09-30T18:00:36.235Z,2.60
2022-09-30T18:03:03.205Z,2.83
2022-09-30T18:05:29.889Z,2.53
2022-09-30T18:07:57.125Z,3.13
2022-09-30T18:10:23.688Z,4.18
2022-09-30T18:12:51.679Z,3.55
2022-09-30T18:15:18.153Z,2.92
2022-09-30T18:17:44.683Z,2.15
2022-09-30T18:20:11.323Z,3.08
2022-09-30T18:22:37.699Z,3.45
2022-09-30T18:25:22.775Z,2.95
2022-09-30T18:27:50.571Z,2.67
2022-09-30T18:30:18.106Z,5.75
2022-09-30T18:32:46.511Z,2.75
2022-09-30T18:35:13.074Z,2.78
2022-09-30T18:37:39.873Z,3.28
2022-09-30T18:40:06.484Z,3.75
2022-09-30T18:42:32.787Z,4.15
2022-09-30T18:44:58.972Z,4.25
2022-09-30T18:47:25.967Z,3.42
2022-09-30T18:49:52.176Z,4.88
2022-09-30T18:52:18.383Z,4.38
2022-09-30T18:54:44.646Z,5.38
2022-09-30T18:57:10.863Z,3.53
2022-09-30T18:59:37.044Z,4.32
2022-09-30T19:02:04.044Z,3.72
2022-09-30T19:04:30.346Z,5.78
2022-09-30T19:06:56.528Z,4.35
2022-09-30T19:09:26.335Z,6.25
2022-09-30T19:11:52.878Z,5.57
2022-09-30T19:14:19.197Z,4.70
2022-09-30T19:16:45.902Z,5.00
2022-09-30T19:19:12.206Z,7.50
2022-09-30T19:21:39.277Z,4.18
2022-09-30T19:24:07.048Z,3.22
2022-09-30T19:26:34.803Z,3.47
2022-09-30T19:29:00.980Z,4.93
2022-09-30T19:31:27.664Z,5.13
2022-09-30T19:33:56.871Z,4.78
2022-09-30T19:36:24.847Z,3.78
2022-09-30T19:38:55.592Z,4.80
2022-09-30T19:41:26.219Z,6.28
2022-09-30T19:43:52.474Z,6.20
2022-09-30T19:46:21.505Z,6.13
2022-09-30T19:48:47.717Z,6.85
2022-09-30T19:51:16.776Z,5.82
2022-09-30T19:53:48.918Z,3.67
2022-09-30T19:56:20.779Z,4.40
2022-09-30T19:58:51.224Z,5.72
2022-09-30T20:01:21.620Z,4.07
2022-09-30T20:03:48.343Z,4.63
2022-09-30T20:06:15.669Z,3.40
2022-09-30T20:08:42.906Z,4.20
2022-09-30T20:11:10.401Z,5.85
2022-09-30T20:13:37.048Z,3.90
2022-09-30T20:16:05.916Z,6.00
2022-09-30T20:18:32.503Z,5.63
2022-09-30T20:20:59.316Z,3.33
2022-09-30T20:23:25.962Z,4.65
2022-09-30T20:25:53.052Z,4.22
2022-09-30T20:28:20.144Z,4.25
2022-09-30T20:30:47.085Z,4.53
2022-09-30T20:33:18.128Z,4.75
2022-09-30T20:35:44.783Z,4.30
2022-09-30T20:38:12.423Z,4.35
2022-09-30T20:40:39.982Z,5.53
2022-09-30T20:43:07.753Z,4.45
2022-09-30T20:45:34.227Z,6.82
2022-09-30T20:48:00.908Z,3.80
2022-09-30T20:50:36.351Z,5.60
2022-09-30T20:53:03.949Z,9.35
2022-09-30T20:55:30.151Z,5.07
2022-09-30T20:57:56.340Z,5.78
2022-09-30T21:00:22.548Z,4.45
2022-09-30T21:02:49.249Z,4.07
2022-09-30T21:05:15.551Z,4.85
2022-09-30T21:07:41.739Z,5.60
2022-09-30T21:10:08.127Z,5.00
2022-09-30T21:12:34.375Z,4.03
2022-09-30T21:15:01.129Z,4.85
2022-09-30T21:17:28.428Z,5.88
2022-09-30T21:19:54.745Z,5.72
2022-09-30T21:22:20.968Z,6.60
2022-09-30T21:24:47.750Z,7.63
2022-09-30T21:27:13.939Z,3.97
2022-09-30T21:29:40.115Z,6.43
2022-09-30T21:32:06.382Z,4.10
2022-09-30T21:34:33.904Z,3.78
2022-09-30T21:37:00.177Z,4.50
2022-09-30T21:39:27.450Z,6.90
2022-09-30T21:41:54.195Z,4.05
2022-09-30T21:44:20.387Z,5.80
2022-09-30T21:46:48.886Z,5.63
2022-09-30T21:49:19.465Z,6.45
2022-09-30T21:51:45.728Z,5.68
2022-09-30T21:54:13.715Z,6.65
2022-09-30T21:56:40.467Z,4.78
2022-09-30T21:59:06.819Z,4.95
2022-09-30T22:01:33.419Z,5.93
2022-09-30T22:03:59.920Z,5.65
2022-09-30T22:06:26.170Z,6.57
2022-09-30T22:08:52.358Z,6.60
2022-09-30T22:11:24.451Z,7.40
2022-09-30T22:13:55.114Z,4.78
2022-09-30T22:16:26.885Z,4.83
2022-09-30T22:18:53.908Z,7.47
2022-09-30T22:21:20.615Z,4.80
2022-09-30T22:23:47.564Z,5.38
2022-09-30T22:26:17.982Z,5.95
2022-09-30T22:28:45.091Z,5.53
2022-09-30T22:31:11.327Z,4.70
2022-09-30T22:33:56.362Z,4.53
2022-09-30T22:36:41.288Z,5.53
2022-09-30T22:39:07.498Z,5.72
2022-09-30T22:41:34.022Z,4.43
2022-09-30T22:44:00.761Z,5.50
2022-09-30T22:46:28.690Z,4.97
2022-09-30T22:48:54.909Z,4.95
2022-09-30T22:51:21.080Z,4.95
2022-09-30T22:53:47.305Z,5.13
2022-09-30T22:56:13.499Z,7.10
2022-09-30T22:58:39.697Z,5.07
2022-09-30T23:01:05.935Z,6.10
2022-09-30T23:03:32.164Z,6.63
2022-09-30T23:06:05.495Z,4.90
2022-09-30T23:08:33.324Z,5.68
2022-09-30T23:11:02.587Z,7.55
2022-09-30T23:13:30.279Z,5.53
2022-09-30T23:15:59.667Z,5.35
2022-09-30T23:18:26.422Z,5.15
2022-09-30T23:20:56.316Z,6.03
2022-09-30T23:23:22.612Z,8.32
2022-09-30T23:25:56.718Z,7.80
2022-09-30T23:28:22.978Z,5.50
2022-09-30T23:30:49.207Z,6.32
2022-09-30T23:33:15.407Z,5.22
2022-09-30T23:35:45.626Z,4.93
2022-09-30T23:38:11.861Z,6.40
2022-09-30T23:40:47.933Z,5.78
2022-09-30T23:43:14.754Z,7.03
2022-09-30T23:45:41.385Z,7.45
2022-09-30T23:48:07.822Z,5.63
2022-09-30T23:50:34.454Z,6.03
2022-09-30T23:53:00.967Z,5.35
2022-09-30T23:55:27.861Z,5.32
2022-09-30T23:57:54.414Z,6.35
